Time;durP1;ratioP1;P1;durP2;ratioP2;P2;SDS_P1;SDS_P2;PMS_P1;PMS_P2;Temp;Humidity;BMP_temperature;BMP_pressure;BME280_temperature;BME280_humidity;BME280_pressure;Samples;Min_cycle;Max_cycle;Signal;HPM_P1;HPM_P2
2024/01/20 00:01:47;;;;;;;0.47;0.47;;;0.50;99.90;;;;;;5046482;28;20051;-87
2024/01/20 00:04:13;;;;;;;0.00;0.00;;;0.50;99.90;;;;;;5061082;28;20044;-87
2024/01/20 00:06:39;;;;;;;0.77;0.77;;;0.50;99.90;;;;;;5073714;28;20048;-87
2024/01/20 00:09:04;;;;;;;0.13;0.13;;;0.50;99.90;;;;;;5089477;28;20378;-87
2024/01/20 00:11:30;;;;;;;1.50;1.30;;;1.50;99.90;;;;;;5097723;28;20051;-87
2024/01/20 00:13:56;;;;;;;0.20;0.20;;;0.50;99.90;;;;;;5079625;28;20489;-88
2024/01/20 00:16:21;;;;;;;0.63;0.63;;;1.30;99.90;;;;;;5083894;28;20032;-88
2024/01/20 00:18:48;;;;;;;0.10;0.10;;;0.60;99.90;;;;;;5063332;28;20630;-88
2024/01/20 00:21:14;;;;;;;0.10;0.10;;;0.50;99.90;;;;;;5053500;28;20051;-87
2024/01/20 00:23:39;;;;;;;0.63;0.63;;;0.60;99.90;;;;;;5081766;28;20493;-87
2024/01/20 00:26:05;;;;;;;0.40;0.40;;;0.60;99.90;;;;;;5041225;28;20046;-87
2024/01/20 00:28:30;;;;;;;0.93;0.93;;;0.50;99.90;;;;;;5086058;28;20136;-87
2024/01/20 00:30:56;;;;;;;0.00;0.00;;;0.50;99.90;;;;;;5067711;28;20044;-87
2024/01/20 00:33:22;;;;;;;0.30;0.30;;;0.50;99.90;;;;;;5069814;28;20559;-87
2024/01/20 00:35:47;;;;;;;0.17;0.17;;;0.40;99.90;;;;;;5077828;28;20055;-87
2024/01/20 00:38:13;;;;;;;1.27;1.07;;;0.30;99.90;;;;;;5102938;28;20057;-87
2024/01/20 00:40:39;;;;;;;0.00;0.00;;;0.30;99.90;;;;;;5058456;28;20060;-87
2024/01/20 00:43:05;;;;;;;0.10;0.10;;;0.20;99.90;;;;;;5085706;28;20043;-87
2024/01/20 00:45:31;;;;;;;2.93;0.83;;;0.30;99.90;;;;;;5046236;28;20401;-87
2024/01/20 00:47:57;;;;;;;0.07;0.07;;;0.20;99.90;;;;;;5067955;28;20824;-87
2024/01/20 00:50:23;;;;;;;0.70;0.70;;;0.20;99.90;;;;;;5102797;28;20036;-87
2024/01/20 00:52:49;;;;;;;0.00;0.00;;;0.20;99.90;;;;;;5067544;28;20105;-87
2024/01/20 00:55:14;;;;;;;0.10;0.10;;;0.30;1.00;;;;;;5063983;28;20514;-87
2024/01/20 00:57:40;;;;;;;0.33;0.33;;;0.30;99.90;;;;;;5066117;28;20097;-87
2024/01/20 01:00:09;;;;;;;0.10;0.10;;;0.20;99.90;;;;;;5068481;28;20048;-87
2024/01/20 01:02:36;;;;;;;0.23;0.23;;;0.30;99.90;;;;;;5067219;28;20050;-87
2024/01/20 01:05:02;;;;;;;0.10;0.10;;;0.20;99.90;;;;;;5049953;28;20047;-87
2024/01/20 01:07:28;;;;;;;1.67;0.87;;;0.10;1.00;;;;;;5066283;28;20036;-87
2024/01/20 01:09:53;;;;;;;0.67;0.67;;;0.10;1.00;;;;;;5068758;28;20105;-87
2024/01/20 01:12:19;;;;;;;0.00;0.00;;;0.00;1.00;;;;;;5073968;28;20052;-87
2024/01/20 01:14:44;;;;;;;0.53;0.53;;;0.00;29.50;;;;;;5102664;28;20043;-87
2024/01/20 01:17:10;;;;;;;1.53;1.37;;;0.00;90.50;;;;;;5095642;28;20035;-86
2024/01/20 01:19:36;;;;;;;0.27;0.27;;;0.00;93.70;;;;;;5055190;28;20044;-85
2024/01/20 01:22:02;;;;;;;0.23;0.23;;;0.10;99.90;;;;;;5102645;28;20082;-86
2024/01/20 01:24:28;;;;;;;0.13;0.13;;;0.00;99.90;;;;;;5050846;28;20476;-86
2024/01/20 01:26:53;;;;;;;0.10;0.10;;;0.00;99.90;;;;;;5056649;28;20052;-86
2024/01/20 01:29:19;;;;;;;0.37;0.37;;;0.00;99.90;;;;;;5066963;28;20589;-85
2024/01/20 01:31:45;;;;;;;1.00;0.83;;;0.00;80.00;;;;;;5050983;28;20471;-86
2024/01/20 01:34:10;;;;;;;0.70;0.70;;;0.00;99.90;;;;;;5066720;28;20417;-86
2024/01/20 01:36:36;;;;;;;0.20;0.20;;;0.00;99.90;;;;;;5039473;28;20040;-86
2024/01/20 01:39:02;;;;;;;0.87;0.87;;;0.00;99.90;;;;;;5094108;28;20044;-86
2024/01/20 01:41:27;;;;;;;0.10;0.10;;;0.10;99.90;;;;;;5087367;28;20386;-86
2024/01/20 01:43:53;;;;;;;0.37;0.37;;;0.30;99.90;;;;;;5073463;28;20043;-86
2024/01/20 01:46:19;;;;;;;0.40;0.40;;;0.00;99.90;;;;;;5076005;28;20048;-86
2024/01/20 01:48:45;;;;;;;0.17;0.17;;;0.00;99.90;;;;;;5105441;28;20277;-86
2024/01/20 01:51:14;;;;;;;1.17;1.07;;;0.00;99.90;;;;;;5097284;28;20044;-86
2024/01/20 01:53:40;;;;;;;0.23;0.23;;;0.10;99.90;;;;;;5070456;28;20060;-86
2024/01/20 01:56:07;;;;;;;1.10;1.03;;;0.20;99.90;;;;;;5053843;28;20051;-86
2024/01/20 01:58:33;;;;;;;0.70;0.70;;;0.30;99.90;;;;;;5063655;28;20478;-86
2024/01/20 02:01:00;;;;;;;0.30;0.30;;;0.30;99.90;;;;;;5082284;28;20072;-86
2024/01/20 02:03:25;;;;;;;0.20;0.20;;;0.30;99.90;;;;;;5066106;28;20378;-86
2024/01/20 02:05:51;;;;;;;1.50;1.40;;;0.10;99.90;;;;;;5099123;28;20043;-86
2024/01/20 02:08:18;;;;;;;0.30;0.30;;;0.10;99.90;;;;;;5062482;28;20131;-85
2024/01/20 02:10:46;;;;;;;0.47;0.47;;;0.10;97.90;;;;;;5065993;28;20102;-86
2024/01/20 02:13:13;;;;;;;0.30;0.30;;;0.00;59.50;;;;;;5093800;28;20096;-86
2024/01/20 02:15:39;;;;;;;4.47;1.97;;;-0.10;45.90;;;;;;5088553;28;20047;-86
2024/01/20 02:18:05;;;;;;;0.00;0.00;;;0.00;99.90;;;;;;5067919;28;20047;-86
2024/01/20 02:20:30;;;;;;;0.67;0.67;;;-0.10;59.80;;;;;;5099477;28;20386;-86
2024/01/20 02:22:57;;;;;;;1.10;1.00;;;-0.10;86.00;;;;;;5065820;28;20067;-86
2024/01/20 02:25:23;;;;;;;0.50;0.50;;;-0.10;99.90;;;;;;5076862;28;20132;-86
2024/01/20 02:27:48;;;;;;;0.27;0.27;;;0.20;56.40;;;;;;5061634;28;20079;-86
2024/01/20 02:30:14;;;;;;;0.63;0.60;;;-0.30;52.40;;;;;;5084995;28;20604;-86
2024/01/20 02:32:40;;;;;;;0.10;0.10;;;-0.30;99.90;;;;;;5099212;28;20031;-85
2024/01/20 02:35:07;;;;;;;0.40;0.40;;;-0.40;99.90;;;;;;5082074;28;20043;-86
2024/01/20 02:37:32;;;;;;;0.10;0.10;;;-0.30;99.90;;;;;;5083443;28;20074;-85
2024/01/20 02:39:58;;;;;;;0.70;0.70;;;-0.30;99.90;;;;;;5091733;28;20075;-85
2024/01/20 02:42:24;;;;;;;1.23;0.80;;;-0.30;99.90;;;;;;5049843;28;20098;-86
2024/01/20 02:44:50;;;;;;;1.90;1.37;;;-0.30;99.90;;;;;;5069355;28;20109;-86
2024/01/20 02:47:16;;;;;;;0.20;0.20;;;-0.40;99.90;;;;;;5061921;28;20051;-86
2024/01/20 02:49:42;;;;;;;0.00;0.00;;;-0.30;99.90;;;;;;5044529;28;20115;-86
2024/01/20 02:52:08;;;;;;;1.00;0.97;;;-0.30;99.90;;;;;;5071691;28;20493;-86
2024/01/20 02:54:33;;;;;;;0.70;0.70;;;-0.30;99.90;;;;;;5064508;28;20197;-86
2024/01/20 02:56:59;;;;;;;0.10;0.10;;;-0.20;99.90;;;;;;5058965;28;20044;-86
2024/01/20 02:59:24;;;;;;;1.23;0.97;;;-0.20;99.90;;;;;;5065081;28;20072;-86
2024/01/20 03:01:50;;;;;;;0.60;0.60;;;-0.30;99.90;;;;;;5064845;28;20052;-85
2024/01/20 03:04:16;;;;;;;0.40;0.40;;;-0.30;99.90;;;;;;5065103;28;20474;-86
2024/01/20 03:06:42;;;;;;;0.33;0.23;;;-0.30;99.90;;;;;;5046371;28;20440;-86
2024/01/20 03:09:08;;;;;;;1.80;1.13;;;-0.30;99.90;;;;;;5056377;28;20135;-85
2024/01/20 03:11:37;;;;;;;1.27;1.17;;;-0.40;79.30;;;;;;5065642;28;20132;-86
2024/01/20 03:14:03;;;;;;;0.30;0.30;;;-0.40;96.60;;;;;;5090260;28;20502;-87
2024/01/20 03:16:28;;;;;;;5.30;1.37;;;-0.40;99.90;;;;;;5063519;28;20043;-85
2024/01/20 03:18:54;;;;;;;0.93;0.67;;;-0.40;99.90;;;;;;5064509;28;20117;-85
2024/01/20 03:21:19;;;;;;;2.83;1.53;;;-0.50;99.90;;;;;;5065188;28;20375;-85
2024/01/20 03:23:45;;;;;;;0.93;0.93;;;-0.50;99.90;;;;;;5064865;28;20097;-85
2024/01/20 03:26:11;;;;;;;0.80;0.80;;;-0.50;99.90;;;;;;5050103;28;20098;-85
2024/01/20 03:28:37;;;;;;;0.97;0.97;;;-0.40;99.90;;;;;;5071606;28;20088;-85
2024/01/20 03:31:03;;;;;;;1.40;1.30;;;-0.40;99.90;;;;;;5065282;28;20121;-85
2024/01/20 03:33:29;;;;;;;0.40;0.40;;;-0.40;99.90;;;;;;5060155;28;20599;-85
2024/01/20 03:35:54;;;;;;;0.73;0.73;;;-0.40;99.90;;;;;;5089725;28;20396;-85
2024/01/20 03:38:20;;;;;;;1.00;0.90;;;-0.50;99.90;;;;;;5066944;28;20717;-85
2024/01/20 03:40:46;;;;;;;0.53;0.53;;;-0.50;99.90;;;;;;5081169;28;20052;-85
2024/01/20 03:43:12;;;;;;;0.57;0.57;;;-0.50;99.90;;;;;;5048748;28;20051;-85
2024/01/20 03:45:42;;;;;;;5.83;4.77;;;-0.50;99.90;;;;;;5067438;28;20044;-85
2024/01/20 03:48:08;;;;;;;0.40;0.40;;;-0.60;99.90;;;;;;5070297;28;20059;-85
2024/01/20 03:50:34;;;;;;;1.03;0.93;;;-0.60;99.90;;;;;;5063931;28;20044;-85
2024/01/20 03:52:59;;;;;;;0.40;0.40;;;0.20;99.90;;;;;;5068466;28;20052;-85
2024/01/20 03:55:25;;;;;;;0.77;0.77;;;-0.60;99.90;;;;;;5068108;28;20040;-85
2024/01/20 03:57:51;;;;;;;0.80;0.80;;;-0.50;99.90;;;;;;5052982;28;20512;-85
2024/01/20 04:00:17;;;;;;;0.83;0.83;;;-0.60;99.90;;;;;;5056549;28;20417;-85
2024/01/20 04:02:42;;;;;;;0.33;0.33;;;-0.70;99.90;;;;;;5073543;28;20100;-86
2024/01/20 04:05:08;;;;;;;0.63;0.63;;;-0.70;99.90;;;;;;5053964;28;20043;-85
2024/01/20 04:07:34;;;;;;;0.47;0.47;;;-0.70;99.90;;;;;;5069146;28;20535;-86
2024/01/20 04:09:59;;;;;;;0.30;0.30;;;-0.70;99.90;;;;;;5070127;28;20056;-85
2024/01/20 04:12:25;;;;;;;0.40;0.40;;;-0.70;99.90;;;;;;5070659;28;20533;-86
2024/01/20 04:14:51;;;;;;;0.63;0.50;;;-0.60;99.90;;;;;;5068057;28;20056;-85
2024/01/20 04:17:17;;;;;;;0.83;0.83;;;-0.70;99.90;;;;;;5096083;28;20043;-85
2024/01/20 04:19:42;;;;;;;2.13;0.87;;;-0.70;99.90;;;;;;5052666;28;20047;-85
2024/01/20 04:22:08;;;;;;;4.20;2.07;;;-0.70;99.90;;;;;;5075816;28;20051;-85
2024/01/20 04:24:33;;;;;;;0.50;0.50;;;-0.70;99.90;;;;;;5083898;28;20387;-85
2024/01/20 04:26:59;;;;;;;2.83;1.30;;;-0.70;99.90;;;;;;5090894;28;20041;-86
2024/01/20 04:29:25;;;;;;;1.30;1.20;;;-0.80;99.90;;;;;;5063028;28;20054;-85
2024/01/20 04:31:50;;;;;;;0.37;0.37;;;-0.80;99.90;;;;;;5096083;28;20044;-85
2024/01/20 04:34:16;;;;;;;1.97;1.77;;;-0.80;99.90;;;;;;5103733;28;20510;-86
2024/01/20 04:36:41;;;;;;;0.67;0.67;;;-0.80;99.90;;;;;;5093201;28;20048;-85
2024/01/20 04:39:07;;;;;;;1.70;1.60;;;-0.80;99.90;;;;;;5097950;28;20040;-86
2024/01/20 04:41:33;;;;;;;0.60;0.60;;;-0.80;99.90;;;;;;5102504;28;20077;-86
2024/01/20 04:43:58;;;;;;;0.30;0.30;;;-0.80;99.90;;;;;;5068592;28;20131;-86
2024/01/20 04:46:24;;;;;;;1.37;1.20;;;-0.70;99.90;;;;;;5089019;28;20500;-86
2024/01/20 04:48:49;;;;;;;0.40;0.40;;;-0.70;99.90;;;;;;5095855;28;20047;-86
2024/01/20 04:51:15;;;;;;;1.60;1.40;;;-0.70;99.90;;;;;;5052632;28;20405;-85
2024/01/20 04:53:41;;;;;;;2.03;1.63;;;-0.80;99.90;;;;;;5058941;28;20048;-86
2024/01/20 04:56:07;;;;;;;1.10;0.97;;;-0.80;99.90;;;;;;5059826;28;20516;-86
2024/01/20 04:58:33;;;;;;;1.00;0.97;;;-0.90;90.30;;;;;;5068704;28;20052;-86
2024/01/20 05:00:58;;;;;;;0.53;0.53;;;-0.80;99.90;;;;;;5069079;28;20072;-86
2024/01/20 05:03:24;;;;;;;1.33;1.23;;;-0.90;99.90;;;;;;5092976;28;20037;-86
2024/01/20 05:05:50;;;;;;;0.93;0.57;;;-0.90;99.90;;;;;;5060497;28;20404;-86
2024/01/20 05:08:15;;;;;;;0.57;0.57;;;-0.90;99.90;;;;;;5068124;28;20063;-86
2024/01/20 05:10:41;;;;;;;0.70;0.67;;;-0.90;99.90;;;;;;5067092;28;20078;-86
2024/01/20 05:13:07;;;;;;;0.20;0.20;;;-1.00;99.90;;;;;;5085188;28;20043;-86
2024/01/20 05:15:32;;;;;;;1.27;1.17;;;-0.90;99.90;;;;;;5081665;28;20072;-86
2024/01/20 05:17:58;;;;;;;0.90;0.90;;;-0.90;99.90;;;;;;5090784;28;20530;-86
2024/01/20 05:20:24;;;;;;;0.10;0.10;;;-0.80;99.90;;;;;;5072322;28;20128;-86
2024/01/20 05:22:50;;;;;;;2.23;1.40;;;-0.80;99.90;;;;;;5089048;28;20093;-86
2024/01/20 05:25:15;;;;;;;1.80;1.53;;;-0.80;83.10;;;;;;5065009;28;20748;-86
2024/01/20 05:27:41;;;;;;;0.20;0.20;;;-0.80;45.20;;;;;;5054727;28;20087;-86
2024/01/20 05:30:07;;;;;;;0.10;0.10;;;-0.90;29.30;;;;;;5089105;28;20077;-86
2024/01/20 05:32:33;;;;;;;1.23;0.83;;;-0.90;68.50;;;;;;5099657;28;20043;-86
2024/01/20 05:34:59;;;;;;;0.80;0.80;;;-1.00;15.80;;;;;;5079870;28;20051;-86
2024/01/20 05:37:25;;;;;;;0.30;0.30;;;-1.00;99.90;;;;;;5061007;28;20210;-86
2024/01/20 05:39:51;;;;;;;0.80;0.80;;;-1.00;99.90;;;;;;5043891;28;20060;-86
2024/01/20 05:42:17;;;;;;;2.67;2.17;;;-1.10;90.70;;;;;;5066975;28;20126;-86
2024/01/20 05:44:43;;;;;;;1.00;1.00;;;-0.50;99.90;;;;;;5046987;28;20064;-86
2024/01/20 05:47:09;;;;;;;0.67;0.63;;;-1.20;99.90;;;;;;5100087;28;20032;-86
2024/01/20 05:49:35;;;;;;;0.93;0.90;;;-1.30;99.90;;;;;;5067110;28;20473;-86
2024/01/20 05:52:01;;;;;;;0.77;0.77;;;-1.40;99.90;;;;;;5067541;28;20086;-86
2024/01/20 05:54:26;;;;;;;1.53;1.43;;;-1.40;99.90;;;;;;5067628;28;20079;-86
2024/01/20 05:56:52;;;;;;;0.50;0.50;;;-1.40;99.90;;;;;;5066155;28;20079;-86
2024/01/20 05:59:18;;;;;;;3.50;3.23;;;-1.50;99.90;;;;;;5067030;28;20055;-86
2024/01/20 06:01:50;;;;;;;3.77;2.53;;;-1.50;99.90;;;;;;5083560;28;20066;-86
2024/01/20 06:04:18;;;;;;;0.80;0.77;;;-1.40;99.90;;;;;;5092419;28;20087;-86
2024/01/20 06:06:45;;;;;;;0.97;0.93;;;-1.40;99.90;;;;;;5059093;28;20048;-86
2024/01/20 06:09:11;;;;;;;1.07;1.07;;;-1.40;99.90;;;;;;5067461;28;20059;-86
2024/01/20 06:11:37;;;;;;;0.97;0.97;;;-1.40;99.90;;;;;;5067066;28;20060;-86
2024/01/20 06:14:02;;;;;;;0.77;0.77;;;-1.40;99.90;;;;;;5052157;28;20044;-86
2024/01/20 06:16:28;;;;;;;0.83;0.83;;;-1.40;99.90;;;;;;5055189;28;20044;-86
2024/01/20 06:18:54;;;;;;;2.37;2.20;;;-1.40;99.90;;;;;;5058235;28;20051;-86
2024/01/20 06:21:23;;;;;;;2.00;1.90;;;-1.30;99.90;;;;;;5068160;28;20067;-86
2024/01/20 06:23:50;;;;;;;0.93;0.93;;;-1.30;99.90;;;;;;5069011;28;20040;-86
2024/01/20 06:26:15;;;;;;;1.73;1.33;;;-1.20;99.90;;;;;;5092270;28;20070;-86
2024/01/20 06:28:42;;;;;;;1.37;1.23;;;-1.30;99.90;;;;;;5097422;28;20491;-86
2024/01/20 06:31:08;;;;;;;2.10;1.70;;;-1.30;99.90;;;;;;5085884;28;20074;-86
2024/01/20 06:33:33;;;;;;;3.07;2.83;;;-1.40;99.90;;;;;;5067240;28;20047;-86
2024/01/20 06:35:59;;;;;;;2.50;2.40;;;-1.30;99.90;;;;;;5059257;28;20149;-86
2024/01/20 06:38:25;;;;;;;1.47;1.37;;;-1.30;99.90;;;;;;5068030;28;20142;-86
2024/01/20 06:40:50;;;;;;;1.13;1.13;;;-1.40;99.90;;;;;;5067503;28;20044;-87
2024/01/20 06:43:16;;;;;;;1.37;1.27;;;-1.40;99.90;;;;;;5070404;28;20576;-86
2024/01/20 06:45:42;;;;;;;0.70;0.70;;;-1.40;95.10;;;;;;5069197;28;20118;-87
2024/01/20 06:48:09;;;;;;;1.63;1.53;;;-1.40;99.90;;;;;;5068368;28;20395;-86
2024/01/20 06:50:42;;;;;;;0.20;0.20;;;-1.40;99.90;;;;;;5067869;28;20463;-85
2024/01/20 06:53:11;;;;;;;14.20;2.13;;;-1.40;99.90;;;;;;5056374;28;20048;-86
2024/01/20 06:55:37;;;;;;;1.03;1.00;;;-1.40;99.90;;;;;;5051455;28;20117;-86
2024/01/20 06:58:03;;;;;;;6.60;3.63;;;-1.30;99.90;;;;;;5068653;28;20880;-86
2024/01/20 07:00:29;;;;;;;7.87;4.23;;;-1.30;99.90;;;;;;5070379;28;20047;-87
2024/01/20 07:02:55;;;;;;;1.23;1.13;;;-1.40;99.30;;;;;;5074591;28;20052;-86
2024/01/20 07:05:20;;;;;;;1.13;0.93;;;-1.40;95.00;;;;;;5052889;28;20052;-86
2024/01/20 07:07:46;;;;;;;1.43;1.30;;;-1.30;99.90;;;;;;5056052;28;20067;-86
2024/01/20 07:10:14;;;;;;;0.13;0.13;;;-1.30;40.80;;;;;;5089401;28;20073;-86
2024/01/20 07:12:40;;;;;;;0.50;0.50;;;-1.30;6.60;;;;;;5062933;28;20059;-87
2024/01/20 07:15:06;;;;;;;0.97;0.87;;;-1.30;15.90;;;;;;5073960;28;20052;-87
2024/01/20 07:17:32;;;;;;;1.97;1.87;;;-1.30;9.00;;;;;;5031152;28;20048;-86
2024/01/20 07:19:58;;;;;;;0.70;0.70;;;-1.30;4.40;;;;;;5104732;28;20144;-87
2024/01/20 07:22:24;;;;;;;2.80;2.23;;;-1.30;1.00;;;;;;5080670;28;20119;-87
2024/01/20 07:24:49;;;;;;;1.63;1.53;;;-1.30;1.00;;;;;;5057782;28;20097;-87
2024/01/20 07:27:15;;;;;;;2.60;2.43;;;-1.20;1.00;;;;;;5049556;28;20105;-88
2024/01/20 07:29:41;;;;;;;3.53;3.07;;;-1.30;1.00;;;;;;5044365;28;20402;-87
2024/01/20 07:32:07;;;;;;;1.47;1.27;;;-1.20;58.80;;;;;;5067644;28;20055;-88
2024/01/20 07:34:32;;;;;;;1.20;1.17;;;-1.10;3.20;;;;;;5051119;28;20105;-86
2024/01/20 07:36:58;;;;;;;0.20;0.20;;;-1.00;35.20;;;;;;5101881;28;20097;-85
2024/01/20 07:39:24;;;;;;;1.17;1.17;;;-0.90;1.00;;;;;;5039891;28;20076;-87
2024/01/20 07:41:49;;;;;;;1.30;1.17;;;-0.80;10.40;;;;;;5031095;28;20116;-88
2024/01/20 07:44:15;;;;;;;0.63;0.63;;;-0.70;12.50;;;;;;5053540;28;20048;-88
2024/01/20 07:46:41;;;;;;;0.60;0.60;;;-0.60;1.00;;;;;;5082248;28;20490;-87
2024/01/20 07:49:07;;;;;;;0.70;0.70;;;-0.50;1.00;;;;;;5068943;28;20043;-88
2024/01/20 07:51:33;;;;;;;0.47;0.47;;;-0.40;1.00;;;;;;5087337;28;20055;-88
2024/01/20 07:53:58;;;;;;;2.43;1.83;;;-0.30;99.90;;;;;;5052728;28;20484;-87
2024/01/20 07:56:24;;;;;;;3.50;2.07;;;-0.20;99.90;;;;;;5067683;28;20046;-88
2024/01/20 07:58:49;;;;;;;0.10;0.10;;;-0.10;99.90;;;;;;5089448;28;20501;-88
2024/01/20 08:01:18;;;;;;;0.60;0.60;;;-0.10;99.90;;;;;;5056317;28;20097;-88
2024/01/20 08:03:44;;;;;;;0.93;0.93;;;0.00;68.20;;;;;;5072343;28;20602;-88
2024/01/20 08:06:10;;;;;;;2.30;1.57;;;0.20;1.00;;;;;;5089136;28;20056;-89
2024/01/20 08:08:36;;;;;;;1.50;1.37;;;0.20;99.90;;;;;;5051455;28;20525;-88
2024/01/20 08:11:01;;;;;;;0.50;0.50;;;0.20;99.90;;;;;;5086046;28;20060;-88
2024/01/20 08:13:27;;;;;;;2.13;1.53;;;0.20;99.90;;;;;;5087142;28;20055;-88
2024/01/20 08:15:53;;;;;;;2.30;2.10;;;0.20;99.90;;;;;;5074093;28;20052;-88
2024/01/20 08:18:18;;;;;;;0.93;0.93;;;0.30;31.70;;;;;;5067293;28;20490;-88
2024/01/20 08:20:44;;;;;;;0.27;0.27;;;0.20;51.30;;;;;;5065257;28;20044;-88
2024/01/20 08:23:10;;;;;;;1.90;1.80;;;0.30;1.00;;;;;;5047806;28;20097;-88
2024/01/20 08:25:35;;;;;;;2.00;1.70;;;0.30;1.00;;;;;;5048528;28;20452;-88
2024/01/20 08:28:01;;;;;;;3.23;2.43;;;0.30;1.00;;;;;;5061710;28;20648;-88
2024/01/20 08:30:26;;;;;;;4.47;3.87;;;0.30;27.00;;;;;;5067214;28;20044;-88
2024/01/20 08:32:52;;;;;;;2.87;1.90;;;0.30;1.00;;;;;;5042951;28;20057;-88
2024/01/20 08:35:18;;;;;;;1.93;1.50;;;0.30;1.00;;;;;;5047380;28;20123;-88
2024/01/20 08:37:46;;;;;;;3.17;1.60;;;0.30;1.00;;;;;;5064697;28;20210;-88
2024/01/20 08:40:12;;;;;;;3.27;2.37;;;0.40;99.90;;;;;;5063638;28;20115;-88
2024/01/20 08:42:37;;;;;;;1.53;0.80;;;0.50;99.90;;;;;;5047892;28;20159;-88
2024/01/20 08:45:03;;;;;;;11.80;3.10;;;0.50;99.90;;;;;;5047401;28;20486;-88
2024/01/20 08:47:29;;;;;;;6.70;3.33;;;0.60;99.90;;;;;;5048086;28;20049;-88
2024/01/20 08:49:55;;;;;;;2.60;2.03;;;0.70;99.90;;;;;;5063801;28;20044;-88
2024/01/20 08:52:20;;;;;;;1.37;1.27;;;0.70;99.90;;;;;;5064400;28;20036;-88
2024/01/20 08:54:46;;;;;;;0.47;0.47;;;0.90;59.90;;;;;;5046283;28;20036;-88
2024/01/20 08:57:12;;;;;;;1.30;1.20;;;0.90;99.90;;;;;;5063112;28;20099;-88
2024/01/20 08:59:38;;;;;;;2.20;1.93;;;1.20;99.90;;;;;;5063619;28;20053;-87
2024/01/20 09:02:05;;;;;;;0.30;0.30;;;1.10;99.90;;;;;;5063399;28;20336;-87
2024/01/20 09:04:31;;;;;;;2.43;2.10;;;1.90;99.90;;;;;;5063243;28;20052;-87
2024/01/20 09:06:57;;;;;;;0.73;0.73;;;1.20;99.90;;;;;;5064389;28;20055;-88
2024/01/20 09:09:23;;;;;;;5.80;2.03;;;1.10;99.90;;;;;;5078212;28;20518;-88
2024/01/20 09:11:48;;;;;;;1.23;1.20;;;1.20;99.90;;;;;;5069958;28;20055;-87
2024/01/20 09:14:15;;;;;;;1.23;1.07;;;1.20;99.90;;;;;;5079885;28;20455;-87
2024/01/20 09:16:40;;;;;;;1.60;1.50;;;1.30;77.00;;;;;;5067542;28;20040;-87
2024/01/20 09:19:06;;;;;;;0.23;0.23;;;1.40;95.10;;;;;;5066150;28;20109;-88
2024/01/20 09:21:32;;;;;;;0.73;0.73;;;1.40;1.00;;;;;;5049444;28;20053;-88
2024/01/20 09:23:58;;;;;;;1.10;0.87;;;1.50;1.00;;;;;;5050874;28;20054;-88
2024/01/20 09:26:23;;;;;;;1.23;1.13;;;1.50;99.90;;;;;;5069394;28;20113;-87
2024/01/20 09:28:49;;;;;;;1.23;1.13;;;1.50;1.00;;;;;;5056208;28;20086;-88
2024/01/20 09:31:15;;;;;;;1.30;1.23;;;1.50;1.00;;;;;;5071025;28;20089;-88
2024/01/20 09:33:43;;;;;;;0.17;0.17;;;1.60;1.00;;;;;;5088446;28;20101;-87
2024/01/20 09:36:09;;;;;;;1.67;1.43;;;1.60;99.90;;;;;;5105874;28;20610;-87
2024/01/20 09:38:34;;;;;;;2.27;2.10;;;1.70;99.90;;;;;;5071945;28;20091;-87
2024/01/20 09:41:00;;;;;;;0.60;0.60;;;1.70;99.90;;;;;;5095175;28;20486;-87
2024/01/20 09:43:26;;;;;;;1.90;1.80;;;1.80;99.90;;;;;;5097041;28;20584;-87
2024/01/20 09:45:52;;;;;;;1.27;1.23;;;1.80;99.90;;;;;;5104738;28;20100;-88
2024/01/20 09:48:18;;;;;;;0.60;0.60;;;1.90;99.90;;;;;;5096523;28;20386;-87
2024/01/20 09:50:44;;;;;;;3.57;1.93;;;2.00;97.30;;;;;;5096081;28;20047;-87
2024/01/20 09:53:14;;;;;;;3.97;1.60;;;2.10;99.90;;;;;;5069147;28;20446;-87
2024/01/20 09:55:45;;;;;;;2.27;2.07;;;2.10;99.90;;;;;;5081973;28;20473;-86
2024/01/20 09:58:12;;;;;;;0.90;0.90;;;2.10;99.90;;;;;;5093128;28;20050;-86
2024/01/20 10:00:39;;;;;;;0.67;0.67;;;2.10;99.90;;;;;;5101631;28;20070;-87
2024/01/20 10:03:08;;;;;;;2.30;1.87;;;2.20;90.80;;;;;;5066017;28;20166;-87
2024/01/20 10:05:34;;;;;;;0.43;0.43;;;2.30;14.50;;;;;;5066937;28;20406;-87
2024/01/20 10:08:01;;;;;;;1.47;1.37;;;2.30;1.00;;;;;;5066269;28;20139;-87
2024/01/20 10:10:26;;;;;;;4.80;1.60;;;2.40;1.00;;;;;;5067247;28;20338;-86
2024/01/20 10:12:55;;;;;;;0.27;0.27;;;2.30;1.00;;;;;;5096924;28;20047;-86
2024/01/20 10:15:22;;;;;;;0.87;0.87;;;2.40;1.00;;;;;;5096483;28;20524;-87
2024/01/20 10:17:48;;;;;;;2.40;1.47;;;2.40;1.00;;;;;;5052975;28;20043;-86
2024/01/20 10:20:24;;;;;;;1.20;1.10;;;2.50;99.90;;;;;;5104714;28;20059;-86
2024/01/20 10:22:50;;;;;;;;;;;2.50;99.90;;;;;;5096670;28;20415;-86
2024/01/20 10:25:19;;;;;;;2.15;1.85;;;2.50;99.90;;;;;;5072211;28;19924;-86
2024/01/20 10:27:49;;;;;;;0.37;0.37;;;2.70;99.90;;;;;;5092541;28;20039;-85
2024/01/20 10:30:17;;;;;;;1.07;1.03;;;2.70;99.90;;;;;;5065313;28;20055;-86
2024/01/20 10:32:44;;;;;;;0.57;0.57;;;2.70;99.90;;;;;;5065343;28;20044;-86
2024/01/20 10:35:10;;;;;;;2.43;1.90;;;2.80;99.90;;;;;;5083738;28;20044;-86
2024/01/20 10:37:42;;;;;;;4.30;0.70;;;2.90;99.90;;;;;;5083356;28;20052;-86
2024/01/20 10:40:13;;;;;;;0.70;0.70;;;2.90;99.90;;;;;;5094328;28;20051;-86
2024/01/20 10:42:57;;;;;;;0.83;0.83;;;2.90;99.90;;;;;;5104294;28;20062;-86
2024/01/20 10:45:25;;;;;;;0.73;0.73;;;2.90;99.90;;;;;;5073304;28;20447;-86
2024/01/20 10:47:50;;;;;;;2.43;2.23;;;3.00;99.90;;;;;;5091917;28;20044;-86
2024/01/20 10:50:17;;;;;;;1.30;1.20;;;3.10;99.90;;;;;;5091856;28;20047;-86
2024/01/20 10:52:43;;;;;;;1.30;1.20;;;3.10;99.90;;;;;;5065388;28;20482;-86
2024/01/20 10:55:10;;;;;;;0.30;0.30;;;3.20;99.90;;;;;;5065740;28;20105;-86
2024/01/20 10:57:35;;;;;;;0.20;0.20;;;3.20;99.90;;;;;;5073495;28;20045;-87
2024/01/20 11:00:04;;;;;;;0.63;0.63;;;3.30;99.90;;;;;;5091653;28;20444;-86
2024/01/20 11:02:30;;;;;;;5.60;3.00;;;3.30;99.90;;;;;;5065258;28;20067;-86
2024/01/20 11:04:56;;;;;;;3.27;2.03;;;3.30;99.90;;;;;;5065918;28;20052;-86
2024/01/20 11:07:23;;;;;;;2.83;1.70;;;3.30;99.90;;;;;;5053022;28;20075;-86
2024/01/20 11:09:59;;;;;;;0.90;0.80;;;3.30;99.90;;;;;;5084950;28;20060;-86
2024/01/20 11:12:29;;;;;;;0.57;0.57;;;3.30;99.90;;;;;;5096476;28;20062;-86
2024/01/20 11:14:57;;;;;;;0.63;0.60;;;3.30;99.90;;;;;;5084839;28;20048;-86
2024/01/20 11:17:24;;;;;;;2.53;2.10;;;3.20;99.90;;;;;;5068558;28;20524;-86
2024/01/20 11:19:53;;;;;;;0.73;0.73;;;3.20;99.90;;;;;;5069431;28;20050;-86
2024/01/20 11:22:39;;;;;;;0.10;0.10;;;3.20;99.90;;;;;;5068622;28;20047;-86
2024/01/20 11:25:06;;;;;;;2.38;1.65;;;3.10;92.10;;;;;;5069078;28;20048;-86
2024/01/20 11:27:47;;;;;;;1.13;1.03;;;3.00;99.90;;;;;;5068829;28;20512;-86
2024/01/20 11:30:13;;;;;;;7.63;2.33;;;3.00;99.90;;;;;;5076621;28;20039;-86
2024/01/20 11:32:39;;;;;;;1.17;1.07;;;3.00;99.90;;;;;;5072512;28;20044;-86
2024/01/20 11:35:05;;;;;;;0.87;0.87;;;3.00;99.90;;;;;;5069047;28;20040;-85
2024/01/20 11:37:34;;;;;;;1.00;1.00;;;2.90;99.90;;;;;;5068926;28;20452;-86
2024/01/20 11:40:07;;;;;;;3.97;0.77;;;2.90;99.90;;;;;;5069929;28;20051;-87
2024/01/20 11:42:38;;;;;;;1.40;1.30;;;2.90;99.90;;;;;;5074916;28;20232;-87
2024/01/20 11:45:05;;;;;;;1.27;1.17;;;2.90;99.90;;;;;;5069973;28;20143;-86
2024/01/20 11:47:31;;;;;;;1.77;1.67;;;2.90;99.90;;;;;;5084002;28;20160;-87
2024/01/20 11:49:58;;;;;;;0.30;0.30;;;2.90;99.90;;;;;;5068612;28;20076;-87
2024/01/20 11:52:25;;;;;;;3.13;1.40;;;2.90;99.90;;;;;;5072049;28;20048;-87
2024/01/20 11:54:51;;;;;;;4.83;1.80;;;2.90;99.90;;;;;;5072532;28;20180;-87
2024/01/20 11:57:26;;;;;;;1.70;1.60;;;3.00;99.90;;;;;;5098755;28;20081;-87
2024/01/20 11:59:53;;;;;;;2.33;2.22;;;3.00;99.90;;;;;;5098984;28;20096;-87
2024/01/20 12:02:20;;;;;;;1.27;1.17;;;3.00;99.90;;;;;;5069981;28;20055;-87
2024/01/20 12:04:45;;;;;;;0.43;0.43;;;3.10;99.90;;;;;;5068926;28;20080;-87
2024/01/20 12:07:11;;;;;;;2.93;2.07;;;3.10;99.90;;;;;;5068657;28;20075;-87
2024/01/20 12:09:37;;;;;;;0.50;0.50;;;3.00;99.90;;;;;;5068156;28;20494;-87
2024/01/20 12:12:03;;;;;;;0.40;0.40;;;3.00;99.90;;;;;;5068130;28;20052;-87
2024/01/20 12:14:29;;;;;;;1.17;1.10;;;3.00;99.90;;;;;;5103580;28;20114;-86
2024/01/20 12:16:56;;;;;;;1.33;1.23;;;3.10;99.90;;;;;;5068738;28;20181;-87
2024/01/20 12:19:21;;;;;;;0.77;0.77;;;3.10;99.90;;;;;;5052033;28;20553;-86
2024/01/20 12:21:47;;;;;;;1.63;1.10;;;3.20;99.90;;;;;;5095344;28;20131;-86
2024/01/20 12:24:13;;;;;;;1.40;1.30;;;3.30;99.90;;;;;;5068711;28;20178;-86
2024/01/20 12:26:41;;;;;;;0.50;0.50;;;3.30;99.90;;;;;;5104025;28;20043;-86
2024/01/20 12:29:06;;;;;;;2.40;2.20;;;3.40;99.90;;;;;;5052215;28;20044;-86
2024/01/20 12:31:32;;;;;;;0.40;0.40;;;3.30;99.90;;;;;;5094187;28;20047;-86
2024/01/20 12:33:58;;;;;;;0.10;0.10;;;3.40;99.90;;;;;;5096089;28;20055;-86
2024/01/20 12:36:24;;;;;;;3.43;2.03;;;3.30;99.90;;;;;;5086760;28;20063;-86
2024/01/20 12:38:50;;;;;;;0.10;0.10;;;3.30;99.90;;;;;;5051427;28;20055;-86
2024/01/20 12:41:16;;;;;;;0.83;0.80;;;3.30;99.90;;;;;;5090014;28;20031;-86
2024/01/20 12:43:44;;;;;;;8.80;1.20;;;3.20;99.90;;;;;;5073342;28;20532;-86
2024/01/20 12:46:10;;;;;;;0.83;0.73;;;3.30;99.90;;;;;;5070240;28;20456;-86
2024/01/20 12:48:36;;;;;;;5.73;1.53;;;3.30;92.50;;;;;;5092401;28;20391;-85